sensor_id;sensor_type;location;lat;lon;timestamp;pressure;altitude;pressure_sealevel;temperature;humidity
56330;BME280;42236;48.058;10.632;2023-03-04T00:00:54;95044.34;;;-1.33;97.79
56330;BME280;42236;48.058;10.632;2023-03-04T00:03:39;95055.75;;;-1.33;98.04
56330;BME280;42236;48.058;10.632;2023-03-04T00:06:25;95045.41;;;-1.34;97.66
56330;BME280;42236;48.058;10.632;2023-03-04T00:09:11;95056.25;;;-1.36;98.29
56330;BME280;42236;48.058;10.632;2023-03-04T00:11:56;95056.25;;;-1.36;98.02
56330;BME280;42236;48.058;10.632;2023-03-04T00:14:42;95049.38;;;-1.37;97.38
56330;BME280;42236;48.058;10.632;2023-03-04T00:17:28;95052.25;;;-1.38;97.06
56330;BME280;42236;48.058;10.632;2023-03-04T00:20:16;95048.81;;;-1.39;97.70
56330;BME280;42236;48.058;10.632;2023-03-04T00:23:01;95052.53;;;-1.40;97.90
56330;BME280;42236;48.058;10.632;2023-03-04T00:25:47;95052.22;;;-1.43;97.98
56330;BME280;42236;48.058;10.632;2023-03-04T00:28:33;95041.41;;;-1.42;97.25
56330;BME280;42236;48.058;10.632;2023-03-04T00:31:18;95052.50;;;-1.45;97.00
56330;BME280;42236;48.058;10.632;2023-03-04T00:34:04;95050.88;;;-1.46;97.15
56330;BME280;42236;48.058;10.632;2023-03-04T00:36:49;95051.94;;;-1.47;97.55
56330;BME280;42236;48.058;10.632;2023-03-04T00:39:35;95055.63;;;-1.48;97.70
56330;BME280;42236;48.058;10.632;2023-03-04T00:42:21;95050.31;;;-1.53;98.15
56330;BME280;42236;48.058;10.632;2023-03-04T00:45:07;95048.97;;;-1.56;97.99
56330;BME280;42236;48.058;10.632;2023-03-04T00:47:53;95056.91;;;-1.56;97.36
56330;BME280;42236;48.058;10.632;2023-03-04T00:50:39;95051.63;;;-1.56;97.19
56330;BME280;42236;48.058;10.632;2023-03-04T00:53:24;95056.66;;;-1.54;96.85
56330;BME280;42236;48.058;10.632;2023-03-04T00:56:10;95053.22;;;-1.55;96.14
56330;BME280;42236;48.058;10.632;2023-03-04T00:58:56;95051.84;;;-1.57;97.53
56330;BME280;42236;48.058;10.632;2023-03-04T01:01:41;95046.56;;;-1.57;96.96
56330;BME280;42236;48.058;10.632;2023-03-04T01:04:27;95047.63;;;-1.58;96.65
56330;BME280;42236;48.058;10.632;2023-03-04T01:07:13;95044.97;;;-1.58;97.17
56330;BME280;42236;48.058;10.632;2023-03-04T01:09:58;95042.88;;;-1.56;96.25
56330;BME280;42236;48.058;10.632;2023-03-04T01:12:44;95039.94;;;-1.60;96.84
56330;BME280;42236;48.058;10.632;2023-03-04T01:15:30;95032.28;;;-1.61;96.49
56330;BME280;42236;48.058;10.632;2023-03-04T01:18:16;95035.47;;;-1.59;95.59
56330;BME280;42236;48.058;10.632;2023-03-04T01:21:01;95031.47;;;-1.62;96.00
56330;BME280;42236;48.058;10.632;2023-03-04T01:23:47;95031.72;;;-1.63;96.44
56330;BME280;42236;48.058;10.632;2023-03-04T01:26:33;95029.09;;;-1.63;95.97
56330;BME280;42236;48.058;10.632;2023-03-04T01:29:19;95029.31;;;-1.65;95.28
56330;BME280;42236;48.058;10.632;2023-03-04T01:32:04;95029.28;;;-1.70;95.50
56330;BME280;42236;48.058;10.632;2023-03-04T01:34:50;95023.44;;;-1.72;95.62
56330;BME280;42236;48.058;10.632;2023-03-04T01:37:36;95023.72;;;-1.74;95.09
56330;BME280;42236;48.058;10.632;2023-03-04T01:40:22;95022.66;;;-1.73;94.50
56330;BME280;42236;48.058;10.632;2023-03-04T01:43:22;95016.81;;;-1.75;94.21
56330;BME280;42236;48.058;10.632;2023-03-04T01:46:10;95015.25;;;-1.76;93.91
56330;BME280;42236;48.058;10.632;2023-03-04T01:48:57;95020.53;;;-1.76;93.66
56330;BME280;42236;48.058;10.632;2023-03-04T01:51:47;95014.69;;;-1.78;93.88
56330;BME280;42236;48.058;10.632;2023-03-04T01:54:33;95010.94;;;-1.82;94.16
56330;BME280;42236;48.058;10.632;2023-03-04T01:57:22;95012.25;;;-1.84;94.28
56330;BME280;42236;48.058;10.632;2023-03-04T02:00:30;95001.88;;;-1.91;94.16
56330;BME280;42236;48.058;10.632;2023-03-04T02:03:17;94997.63;;;-1.97;94.11
56330;BME280;42236;48.058;10.632;2023-03-04T02:06:06;94995.72;;;-2.02;94.70
56330;BME280;42236;48.058;10.632;2023-03-04T02:08:52;95002.09;;;-2.03;94.16
56330;BME280;42236;48.058;10.632;2023-03-04T02:11:38;94993.34;;;-2.03;94.00
56330;BME280;42236;48.058;10.632;2023-03-04T02:14:24;94996.72;;;-2.08;94.13
56330;BME280;42236;48.058;10.632;2023-03-04T02:17:11;94984.81;;;-2.10;93.95
56330;BME280;42236;48.058;10.632;2023-03-04T02:23:19;94986.88;;;-2.18;93.67
56330;BME280;42236;48.058;10.632;2023-03-04T02:26:15;94985.28;;;-2.19;93.72
56330;BME280;42236;48.058;10.632;2023-03-04T02:29:02;94981.53;;;-2.23;93.91
56330;BME280;42236;48.058;10.632;2023-03-04T02:31:50;94986.03;;;-2.23;94.00
56330;BME280;42236;48.058;10.632;2023-03-04T02:34:37;94984.41;;;-2.29;93.86
56330;BME280;42236;48.058;10.632;2023-03-04T02:37:25;94979.88;;;-2.34;93.74
56330;BME280;42236;48.058;10.632;2023-03-04T02:40:23;94982.47;;;-2.39;93.74
56330;BME280;42236;48.058;10.632;2023-03-04T02:43:10;94978.72;;;-2.43;94.55
56330;BME280;42236;48.058;10.632;2023-03-04T02:45:56;94986.91;;;-2.45;93.87
56330;BME280;42236;48.058;10.632;2023-03-04T02:48:42;94983.75;;;-2.42;94.01
56330;BME280;42236;48.058;10.632;2023-03-04T02:51:27;94978.22;;;-2.40;93.63
56330;BME280;42236;48.058;10.632;2023-03-04T02:54:18;94986.16;;;-2.40;93.47
56330;BME280;42236;48.058;10.632;2023-03-04T02:57:07;94986.94;;;-2.40;93.11
56330;BME280;42236;48.058;10.632;2023-03-04T02:59:53;94981.91;;;-2.41;93.18
56330;BME280;42236;48.058;10.632;2023-03-04T03:02:39;94993.53;;;-2.42;93.79
56330;BME280;42236;48.058;10.632;2023-03-04T03:05:26;94985.88;;;-2.44;93.58
56330;BME280;42236;48.058;10.632;2023-03-04T03:08:13;94985.31;;;-2.46;94.15
56330;BME280;42236;48.058;10.632;2023-03-04T03:10:58;94991.91;;;-2.48;94.05
56330;BME280;42236;48.058;10.632;2023-03-04T03:13:44;94989.25;;;-2.48;93.92
56330;BME280;42236;48.058;10.632;2023-03-04T03:16:30;94995.56;;;-2.49;93.92
56330;BME280;42236;48.058;10.632;2023-03-04T03:19:15;94987.09;;;-2.51;94.28
56330;BME280;42236;48.058;10.632;2023-03-04T03:22:01;94988.16;;;-2.52;93.47
56330;BME280;42236;48.058;10.632;2023-03-04T03:24:47;94983.09;;;-2.54;93.14
56330;BME280;42236;48.058;10.632;2023-03-04T03:27:32;94989.44;;;-2.55;92.68
56330;BME280;42236;48.058;10.632;2023-03-04T03:30:18;94980.19;;;-2.58;92.62
56330;BME280;42236;48.058;10.632;2023-03-04T03:33:04;94978.03;;;-2.61;92.61
56330;BME280;42236;48.058;10.632;2023-03-04T03:35:49;94985.66;;;-2.64;92.89
56330;BME280;42236;48.058;10.632;2023-03-04T03:38:35;94984.31;;;-2.67;92.69
56330;BME280;42236;48.058;10.632;2023-03-04T03:41:21;94984.00;;;-2.70;92.77
56330;BME280;42236;48.058;10.632;2023-03-04T03:44:06;94984.50;;;-2.73;92.97
56330;BME280;42236;48.058;10.632;2023-03-04T03:46:52;94978.66;;;-2.75;92.88
56330;BME280;42236;48.058;10.632;2023-03-04T03:49:38;94987.06;;;-2.79;93.22
56330;BME280;42236;48.058;10.632;2023-03-04T03:52:23;94988.94;;;-2.79;93.34
56330;BME280;42236;48.058;10.632;2023-03-04T03:55:09;94986.28;;;-2.79;92.83
56330;BME280;42236;48.058;10.632;2023-03-04T03:57:55;94988.94;;;-2.79;92.77
56330;BME280;42236;48.058;10.632;2023-03-04T04:00:40;94985.72;;;-2.81;93.02
56330;BME280;42236;48.058;10.632;2023-03-04T04:03:26;94980.44;;;-2.81;93.27
56330;BME280;42236;48.058;10.632;2023-03-04T04:06:12;94976.69;;;-2.85;93.21
56330;BME280;42236;48.058;10.632;2023-03-04T04:08:58;94981.19;;;-2.86;92.80
56330;BME280;42236;48.058;10.632;2023-03-04T04:11:43;94981.47;;;-2.87;92.53
56330;BME280;42236;48.058;10.632;2023-03-04T04:14:29;94984.09;;;-2.87;92.97
56330;BME280;42236;48.058;10.632;2023-03-04T04:17:15;94980.91;;;-2.89;92.65
56330;BME280;42236;48.058;10.632;2023-03-04T04:20:00;94975.34;;;-2.88;92.86
56330;BME280;42236;48.058;10.632;2023-03-04T04:22:46;94980.63;;;-2.88;92.73
56330;BME280;42236;48.058;10.632;2023-03-04T04:25:31;94984.56;;;-2.90;93.25
56330;BME280;42236;48.058;10.632;2023-03-04T04:28:17;94977.72;;;-2.91;92.76
56330;BME280;42236;48.058;10.632;2023-03-04T04:31:06;94988.25;;;-2.91;92.90
56330;BME280;42236;48.058;10.632;2023-03-04T04:33:52;94979.25;;;-2.95;93.28
56330;BME280;42236;48.058;10.632;2023-03-04T04:36:38;94980.78;;;-2.99;93.34
56330;BME280;42236;48.058;10.632;2023-03-04T04:39:24;94978.63;;;-3.03;94.11
56330;BME280;42236;48.058;10.632;2023-03-04T04:42:10;94975.19;;;-3.03;93.95
56330;BME280;42236;48.058;10.632;2023-03-04T04:44:56;94988.63;;;-3.05;93.96
56330;BME280;42236;48.058;10.632;2023-03-04T04:47:42;94981.22;;;-3.08;94.35
56330;BME280;42236;48.058;10.632;2023-03-04T04:50:27;94986.00;;;-3.05;93.30
56330;BME280;42236;48.058;10.632;2023-03-04T04:53:13;94984.47;;;-3.01;92.95
56330;BME280;42236;48.058;10.632;2023-03-04T04:55:59;94974.63;;;-3.05;93.00
56330;BME280;42236;48.058;10.632;2023-03-04T04:58:45;94975.94;;;-3.08;92.95
56330;BME280;42236;48.058;10.632;2023-03-04T05:01:31;94983.28;;;-3.10;93.44
56330;BME280;42236;48.058;10.632;2023-03-04T05:04:17;94978.28;;;-3.11;93.38
56330;BME280;42236;48.058;10.632;2023-03-04T05:07:02;94981.16;;;-3.13;93.47
56330;BME280;42236;48.058;10.632;2023-03-04T05:09:48;94979.56;;;-3.14;93.60
56330;BME280;42236;48.058;10.632;2023-03-04T05:12:34;94980.03;;;-3.17;93.58
56330;BME280;42236;48.058;10.632;2023-03-04T05:15:20;94978.47;;;-3.18;93.80
56330;BME280;42236;48.058;10.632;2023-03-04T05:18:05;94979.47;;;-3.19;93.80
56330;BME280;42236;48.058;10.632;2023-03-04T05:20:53;94982.63;;;-3.22;93.80
56330;BME280;42236;48.058;10.632;2023-03-04T05:23:40;94985.03;;;-3.20;93.40
56330;BME280;42236;48.058;10.632;2023-03-04T05:26:26;94982.63;;;-3.22;93.28
56330;BME280;42236;48.058;10.632;2023-03-04T05:29:11;94983.19;;;-3.20;93.42
56330;BME280;42236;48.058;10.632;2023-03-04T05:31:57;94983.41;;;-3.22;93.15
56330;BME280;42236;48.058;10.632;2023-03-04T05:34:43;94977.84;;;-3.25;93.42
56330;BME280;42236;48.058;10.632;2023-03-04T05:37:28;94978.91;;;-3.26;93.12
56330;BME280;42236;48.058;10.632;2023-03-04T05:40:14;94986.25;;;-3.28;94.10
56330;BME280;42236;48.058;10.632;2023-03-04T05:43:00;94986.47;;;-3.30;94.04
56330;BME280;42236;48.058;10.632;2023-03-04T05:45:48;94979.91;;;-3.27;93.58
56330;BME280;42236;48.058;10.632;2023-03-04T05:48:33;94984.97;;;-3.26;93.29
56330;BME280;42236;48.058;10.632;2023-03-04T05:51:19;94986.31;;;-3.23;93.13
56330;BME280;42236;48.058;10.632;2023-03-04T05:54:05;94987.09;;;-3.23;92.76
56330;BME280;42236;48.058;10.632;2023-03-04T05:56:51;94985.53;;;-3.24;92.99
56330;BME280;42236;48.058;10.632;2023-03-04T05:59:37;94986.81;;;-3.26;93.22
56330;BME280;42236;48.058;10.632;2023-03-04T06:02:22;94992.09;;;-3.26;93.44
56330;BME280;42236;48.058;10.632;2023-03-04T06:05:10;94992.09;;;-3.26;93.73
56330;BME280;42236;48.058;10.632;2023-03-04T06:07:55;94989.44;;;-3.26;94.26
56330;BME280;42236;48.058;10.632;2023-03-04T06:10:41;94992.59;;;-3.24;94.39
56330;BME280;42236;48.058;10.632;2023-03-04T06:13:27;94997.66;;;-3.23;93.73
56330;BME280;42236;48.058;10.632;2023-03-04T06:16:13;94998.44;;;-3.22;93.84
56330;BME280;42236;48.058;10.632;2023-03-04T06:18:58;95004.84;;;-3.18;93.76
56330;BME280;42236;48.058;10.632;2023-03-04T06:21:44;95012.53;;;-3.16;94.04
56330;BME280;42236;48.058;10.632;2023-03-04T06:24:30;95004.34;;;-3.15;94.18
56330;BME280;42236;48.058;10.632;2023-03-04T06:27:15;95012.31;;;-3.10;93.66
56330;BME280;42236;48.058;10.632;2023-03-04T06:30:01;95021.13;;;-3.04;93.87
56330;BME280;42236;48.058;10.632;2023-03-04T06:32:47;95020.69;;;-2.96;93.24
56330;BME280;42236;48.058;10.632;2023-03-04T06:35:33;95020.22;;;-2.88;93.11
56330;BME280;42236;48.058;10.632;2023-03-04T06:38:18;95023.75;;;-2.82;93.17
56330;BME280;42236;48.058;10.632;2023-03-04T06:41:06;95021.66;;;-2.80;93.54
56330;BME280;42236;48.058;10.632;2023-03-04T06:43:53;95022.75;;;-2.76;93.94
56330;BME280;42236;48.058;10.632;2023-03-04T06:46:39;95024.66;;;-2.71;93.72
56330;BME280;42236;48.058;10.632;2023-03-04T06:49:25;95029.19;;;-2.67;93.41
56330;BME280;42236;48.058;10.632;2023-03-04T06:52:10;95020.28;;;-2.61;94.01
56330;BME280;42236;48.058;10.632;2023-03-04T06:54:57;95029.34;;;-2.51;93.43
56330;BME280;42236;48.058;10.632;2023-03-04T06:57:43;95022.28;;;-2.46;93.63
56330;BME280;42236;48.058;10.632;2023-03-04T07:00:28;95026.56;;;-2.40;94.57
56330;BME280;42236;48.058;10.632;2023-03-04T07:03:14;95030.88;;;-2.33;94.51
56330;BME280;42236;48.058;10.632;2023-03-04T07:06:00;95027.75;;;-2.25;94.23
56330;BME280;42236;48.058;10.632;2023-03-04T07:08:46;95029.16;;;-2.18;94.42
56330;BME280;42236;48.058;10.632;2023-03-04T07:11:32;95035.59;;;-2.08;94.40
56330;BME280;42236;48.058;10.632;2023-03-04T07:14:17;95030.66;;;-2.00;94.26
56330;BME280;42236;48.058;10.632;2023-03-04T07:17:03;95032.53;;;-1.95;95.54
56330;BME280;42236;48.058;10.632;2023-03-04T07:19:49;95029.16;;;-1.90;95.73
56330;BME280;42236;48.058;10.632;2023-03-04T07:22:34;95029.72;;;-1.83;95.97
56330;BME280;42236;48.058;10.632;2023-03-04T07:25:20;95039.59;;;-1.74;96.62
56330;BME280;42236;48.058;10.632;2023-03-04T07:28:06;95036.47;;;-1.65;97.11
56330;BME280;42236;48.058;10.632;2023-03-04T07:30:51;95042.66;;;-1.55;96.99
56330;BME280;42236;48.058;10.632;2023-03-04T07:33:37;95042.44;;;-1.43;97.54
56330;BME280;42236;48.058;10.632;2023-03-04T07:36:23;95040.13;;;-1.34;97.55
56330;BME280;42236;48.058;10.632;2023-03-04T07:39:11;95042.56;;;-1.22;98.21
56330;BME280;42236;48.058;10.632;2023-03-04T07:41:57;95045.81;;;-1.10;97.98
56330;BME280;42236;48.058;10.632;2023-03-04T07:44:43;95051.72;;;-0.98;98.21
56330;BME280;42236;48.058;10.632;2023-03-04T07:47:29;95042.78;;;-0.87;98.60
56330;BME280;42236;48.058;10.632;2023-03-04T07:50:15;95042.28;;;-0.73;98.32
56330;BME280;42236;48.058;10.632;2023-03-04T07:53:00;95048.44;;;-0.62;98.04
56330;BME280;42236;48.058;10.632;2023-03-04T07:55:47;95050.84;;;-0.51;97.72
56330;BME280;42236;48.058;10.632;2023-03-04T07:58:32;95057.75;;;-0.39;98.05
56330;BME280;42236;48.058;10.632;2023-03-04T08:01:24;95053.56;;;-0.30;97.95
56330;BME280;42236;48.058;10.632;2023-03-04T08:04:10;95067.13;;;-0.22;98.49
56330;BME280;42236;48.058;10.632;2023-03-04T08:06:55;95061.53;;;-0.15;98.75
56330;BME280;42236;48.058;10.632;2023-03-04T08:09:41;95065.56;;;-0.07;98.55
56330;BME280;42236;48.058;10.632;2023-03-04T08:12:27;95063.44;;;0.00;97.61
56330;BME280;42236;48.058;10.632;2023-03-04T08:15:14;95069.53;;;0.06;98.58
56330;BME280;42236;48.058;10.632;2023-03-04T08:18:00;95069.28;;;0.12;99.30
56330;BME280;42236;48.058;10.632;2023-03-04T08:20:46;95064.25;;;0.21;97.77
56330;BME280;42236;48.058;10.632;2023-03-04T08:23:31;95074.34;;;0.29;96.98
56330;BME280;42236;48.058;10.632;2023-03-04T08:26:25;95070.38;;;0.37;98.14
56330;BME280;42236;48.058;10.632;2023-03-04T08:29:14;95070.38;;;0.47;97.64
56330;BME280;42236;48.058;10.632;2023-03-04T08:32:00;95068.00;;;0.56;98.05
56330;BME280;42236;48.058;10.632;2023-03-04T08:34:46;95069.84;;;0.66;98.48
56330;BME280;42236;48.058;10.632;2023-03-04T08:37:31;95066.38;;;0.75;98.11
56330;BME280;42236;48.058;10.632;2023-03-04T08:40:17;95065.81;;;0.89;97.05
56330;BME280;42236;48.058;10.632;2023-03-04T08:43:03;95061.00;;;1.01;97.71
56330;BME280;42236;48.058;10.632;2023-03-04T08:45:49;95063.63;;;1.11;98.30
56330;BME280;42236;48.058;10.632;2023-03-04T08:48:35;95066.81;;;1.23;97.59
56330;BME280;42236;48.058;10.632;2023-03-04T08:51:21;95070.75;;;1.36;98.49
56330;BME280;42236;48.058;10.632;2023-03-04T08:54:07;95077.06;;;1.51;97.67
56330;BME280;42236;48.058;10.632;2023-03-04T08:56:52;95071.19;;;1.59;97.44
56330;BME280;42236;48.058;10.632;2023-03-04T08:59:38;95067.44;;;1.65;96.27
56330;BME280;42236;48.058;10.632;2023-03-04T09:02:24;95066.34;;;1.71;95.99
56330;BME280;42236;48.058;10.632;2023-03-04T09:05:10;95067.38;;;1.80;96.39
56330;BME280;42236;48.058;10.632;2023-03-04T09:07:55;95070.03;;;1.80;95.88
56330;BME280;42236;48.058;10.632;2023-03-04T09:10:42;95063.63;;;1.86;96.43
56330;BME280;42236;48.058;10.632;2023-03-04T09:13:29;95071.78;;;2.00;96.36
56330;BME280;42236;48.058;10.632;2023-03-04T09:16:15;95070.91;;;2.15;97.32
56330;BME280;42236;48.058;10.632;2023-03-04T09:19:00;95073.50;;;2.25;96.80
56330;BME280;42236;48.058;10.632;2023-03-04T09:21:46;95075.03;;;2.31;95.56
56330;BME280;42236;48.058;10.632;2023-03-04T09:24:32;95067.56;;;2.33;94.71
56330;BME280;42236;48.058;10.632;2023-03-04T09:27:17;95062.06;;;2.20;94.88
56330;BME280;42236;48.058;10.632;2023-03-04T09:30:03;95066.41;;;2.10;95.37
56330;BME280;42236;48.058;10.632;2023-03-04T09:32:49;95066.41;;;2.05;95.92
56330;BME280;42236;48.058;10.632;2023-03-04T09:35:35;95072.00;;;2.09;95.82
56330;BME280;42236;48.058;10.632;2023-03-04T09:38:21;95076.50;;;2.13;95.53
56330;BME280;42236;48.058;10.632;2023-03-04T09:41:21;95067.88;;;2.27;96.02
56330;BME280;42236;48.058;10.632;2023-03-04T09:44:40;95077.03;;;2.50;96.48
56330;BME280;42236;48.058;10.632;2023-03-04T09:47:28;95074.97;;;2.76;94.99
56330;BME280;42236;48.058;10.632;2023-03-04T09:50:16;95074.72;;;3.02;95.00
56330;BME280;42236;48.058;10.632;2023-03-04T09:53:18;95074.47;;;3.27;94.24
56330;BME280;42236;48.058;10.632;2023-03-04T09:56:06;95077.34;;;3.55;93.36
56330;BME280;42236;48.058;10.632;2023-03-04T09:59:14;95073.38;;;3.76;92.64
56330;BME280;42236;48.058;10.632;2023-03-04T10:02:15;95065.81;;;3.83;91.42
56330;BME280;42236;48.058;10.632;2023-03-04T10:05:06;95068.41;;;3.89;91.92
56330;BME280;42236;48.058;10.632;2023-03-04T10:07:58;95066.97;;;3.77;90.82
56330;BME280;42236;48.058;10.632;2023-03-04T10:10:45;95057.84;;;3.59;91.53
56330;BME280;42236;48.058;10.632;2023-03-04T10:14:03;95060.00;;;3.33;91.13
56330;BME280;42236;48.058;10.632;2023-03-04T10:17:18;95059.59;;;3.21;91.15
56330;BME280;42236;48.058;10.632;2023-03-04T10:20:26;95056.09;;;3.26;91.55
56330;BME280;42236;48.058;10.632;2023-03-04T10:23:18;95053.31;;;3.36;91.21
56330;BME280;42236;48.058;10.632;2023-03-04T10:26:15;95042.19;;;3.53;91.90
56330;BME280;42236;48.058;10.632;2023-03-04T10:29:01;95047.09;;;3.64;91.51
56330;BME280;42236;48.058;10.632;2023-03-04T10:31:49;95044.78;;;3.58;90.02
56330;BME280;42236;48.058;10.632;2023-03-04T10:34:35;95047.53;;;3.53;90.06
56330;BME280;42236;48.058;10.632;2023-03-04T10:37:21;95047.53;;;3.53;89.77
56330;BME280;42236;48.058;10.632;2023-03-04T10:40:17;95045.28;;;3.60;89.94
56330;BME280;42236;48.058;10.632;2023-03-04T10:43:04;95043.13;;;3.62;89.40
56330;BME280;42236;48.058;10.632;2023-03-04T10:45:57;95032.91;;;3.69;89.30
56330;BME280;42236;48.058;10.632;2023-03-04T10:48:43;95031.56;;;3.91;89.47
56330;BME280;42236;48.058;10.632;2023-03-04T10:51:29;95026.72;;;3.93;88.53
56330;BME280;42236;48.058;10.632;2023-03-04T10:54:19;95032.06;;;3.93;88.32
56330;BME280;42236;48.058;10.632;2023-03-04T10:57:22;95025.69;;;3.89;87.86
56330;BME280;42236;48.058;10.632;2023-03-04T11:00:30;95022.91;;;3.80;86.91
56330;BME280;42236;48.058;10.632;2023-03-04T11:03:34;95024.19;;;3.82;86.24
56330;BME280;42236;48.058;10.632;2023-03-04T11:06:21;95023.78;;;3.94;87.18
56330;BME280;42236;48.058;10.632;2023-03-04T11:09:20;95016.91;;;4.07;86.83
56330;BME280;42236;48.058;10.632;2023-03-04T11:12:15;95014.22;;;4.26;86.97
56330;BME280;42236;48.058;10.632;2023-03-04T11:15:02;95013.69;;;4.43;86.63
56330;BME280;42236;48.058;10.632;2023-03-04T11:17:51;95015.19;;;4.49;86.15
56330;BME280;42236;48.058;10.632;2023-03-04T11:20:40;95010.25;;;4.56;85.83
56330;BME280;42236;48.058;10.632;2023-03-04T11:23:47;95010.34;;;4.51;84.29
56330;BME280;42236;48.058;10.632;2023-03-04T11:26:42;95004.41;;;4.54;84.53
56330;BME280;42236;48.058;10.632;2023-03-04T11:29:37;95000.84;;;4.45;83.21
56330;BME280;42236;48.058;10.632;2023-03-04T11:32:30;95002.84;;;4.53;83.90
56330;BME280;42236;48.058;10.632;2023-03-04T11:35:25;94996.22;;;4.51;83.72
56330;BME280;42236;48.058;10.632;2023-03-04T11:38:21;95002.84;;;4.53;82.17
56330;BME280;42236;48.058;10.632;2023-03-04T11:41:12;94997.72;;;4.57;80.85
56330;BME280;42236;48.058;10.632;2023-03-04T11:43:58;94996.75;;;4.66;81.22
56330;BME280;42236;48.058;10.632;2023-03-04T11:46:58;94991.81;;;4.74;81.32
56330;BME280;42236;48.058;10.632;2023-03-04T11:55:55;94995.22;;;4.93;78.60
56330;BME280;42236;48.058;10.632;2023-03-04T12:04:46;94980.44;;;5.09;78.45
56330;BME280;42236;48.058;10.632;2023-03-04T12:08:17;94983.31;;;4.99;75.53
56330;BME280;42236;48.058;10.632;2023-03-04T12:17:32;94964.13;;;5.25;76.29
56330;BME280;42236;48.058;10.632;2023-03-04T12:20:40;94962.22;;;5.39;76.21
56330;BME280;42236;48.058;10.632;2023-03-04T12:29:50;94950.81;;;5.47;71.85
56330;BME280;42236;48.058;10.632;2023-03-04T12:36:06;94943.78;;;5.51;75.20
56330;BME280;42236;48.058;10.632;2023-03-04T12:42:17;94936.25;;;5.53;74.04
56330;BME280;42236;48.058;10.632;2023-03-04T12:45:22;94923.25;;;5.61;74.98
56330;BME280;42236;48.058;10.632;2023-03-04T12:48:34;94929.94;;;5.72;74.53
56330;BME280;42236;48.058;10.632;2023-03-04T12:51:46;94912.69;;;5.78;74.45
56330;BME280;42236;48.058;10.632;2023-03-04T12:54:40;94906.72;;;5.81;74.73
56330;BME280;42236;48.058;10.632;2023-03-04T12:57:29;94908.50;;;5.86;74.43
56330;BME280;42236;48.058;10.632;2023-03-04T13:03:35;94910.00;;;5.78;74.51
56330;BME280;42236;48.058;10.632;2023-03-04T13:07:10;94909.88;;;5.83;72.10
56330;BME280;42236;48.058;10.632;2023-03-04T13:10:10;94901.56;;;5.85;72.67
56330;BME280;42236;48.058;10.632;2023-03-04T13:12:58;94899.53;;;5.90;73.73
56330;BME280;42236;48.058;10.632;2023-03-04T13:16:00;94889.44;;;5.87;72.00
56330;BME280;42236;48.058;10.632;2023-03-04T13:18:46;94894.81;;;5.87;72.19
56330;BME280;42236;48.058;10.632;2023-03-04T13:21:43;94891.72;;;5.94;73.42
56330;BME280;42236;48.058;10.632;2023-03-04T13:24:44;94891.41;;;5.95;71.91
56330;BME280;42236;48.058;10.632;2023-03-04T13:27:48;94885.94;;;6.01;72.12
56330;BME280;42236;48.058;10.632;2023-03-04T13:37:08;94887.47;;;5.79;71.61
56330;BME280;42236;48.058;10.632;2023-03-04T13:39:34;94893.69;;;5.66;72.48
56330;BME280;42236;48.058;10.632;2023-03-04T13:42:41;94880.59;;;5.64;71.72
56330;BME280;42236;48.058;10.632;2023-03-04T13:45:31;94885.97;;;5.64;71.64
56330;BME280;42236;48.058;10.632;2023-03-04T13:48:36;94869.28;;;5.67;72.27
56330;BME280;42236;48.058;10.632;2023-03-04T13:51:34;94879.94;;;5.81;71.44
56330;BME280;42236;48.058;10.632;2023-03-04T13:54:30;94870.34;;;5.80;70.04
56330;BME280;42236;48.058;10.632;2023-03-04T13:57:18;94871.19;;;5.89;72.67
56330;BME280;42236;48.058;10.632;2023-03-04T14:00:10;94867.63;;;5.94;71.26
56330;BME280;42236;48.058;10.632;2023-03-04T14:03:11;94868.19;;;5.91;69.44
56330;BME280;42236;48.058;10.632;2023-03-04T14:06:19;94863.06;;;5.94;70.91
56330;BME280;42236;48.058;10.632;2023-03-04T14:09:19;94859.00;;;5.97;71.15
56330;BME280;42236;48.058;10.632;2023-03-04T14:12:13;94856.00;;;5.98;71.48
56330;BME280;42236;48.058;10.632;2023-03-04T14:15:14;94861.66;;;5.97;71.50
56330;BME280;42236;48.058;10.632;2023-03-04T14:18:04;94853.72;;;5.92;71.78
56330;BME280;42236;48.058;10.632;2023-03-04T14:20:50;94854.44;;;5.84;71.03
56330;BME280;42236;48.058;10.632;2023-03-04T14:23:36;94853.84;;;5.87;71.57
56330;BME280;42236;48.058;10.632;2023-03-04T14:26:22;94853.53;;;5.88;71.56
56330;BME280;42236;48.058;10.632;2023-03-04T14:29:23;94851.78;;;5.84;71.54
56330;BME280;42236;48.058;10.632;2023-03-04T14:32:10;94857.31;;;5.87;71.43
56330;BME280;42236;48.058;10.632;2023-03-04T14:35:00;94846.78;;;5.91;71.80
56330;BME280;42236;48.058;10.632;2023-03-04T14:41:16;94843.09;;;5.78;70.86
56330;BME280;42236;48.058;10.632;2023-03-04T14:47:09;94834.19;;;5.69;71.76
56330;BME280;42236;48.058;10.632;2023-03-04T14:49:58;94831.66;;;5.64;72.08
56330;BME280;42236;48.058;10.632;2023-03-04T14:52:45;94836.63;;;5.56;72.07
56330;BME280;42236;48.058;10.632;2023-03-04T14:55:31;94839.44;;;5.51;72.51
56330;BME280;42236;48.058;10.632;2023-03-04T14:58:28;94828.53;;;5.48;72.10
56330;BME280;42236;48.058;10.632;2023-03-04T15:01:18;94831.53;;;5.46;72.72
56330;BME280;42236;48.058;10.632;2023-03-04T15:04:08;94828.59;;;5.34;72.89
56330;BME280;42236;48.058;10.632;2023-03-04T15:06:54;94830.19;;;5.21;73.83
56330;BME280;42236;48.058;10.632;2023-03-04T15:09:40;94834.16;;;5.24;74.44
56330;BME280;42236;48.058;10.632;2023-03-04T15:12:32;94834.88;;;5.16;74.33
56330;BME280;42236;48.058;10.632;2023-03-04T15:15:42;94840.94;;;5.07;74.47
56330;BME280;42236;48.058;10.632;2023-03-04T15:18:28;94833.44;;;4.96;73.17
56330;BME280;42236;48.058;10.632;2023-03-04T15:24:08;94830.88;;;4.90;73.12
56330;BME280;42236;48.058;10.632;2023-03-04T15:26:54;94831.25;;;4.84;74.20
56330;BME280;42236;48.058;10.632;2023-03-04T15:29:39;94839.19;;;4.61;75.13
56330;BME280;42236;48.058;10.632;2023-03-04T15:32:29;94838.91;;;4.35;75.86
56330;BME280;42236;48.058;10.632;2023-03-04T15:35:17;94847.94;;;4.20;75.98
56330;BME280;42236;48.058;10.632;2023-03-04T15:38:05;94841.56;;;3.89;77.30
56330;BME280;42236;48.058;10.632;2023-03-04T15:40:52;94843.97;;;3.71;77.78
56330;BME280;42236;48.058;10.632;2023-03-04T15:43:38;94844.41;;;3.46;78.04